createdAt,value
2022-10-29T00:01:14.802Z,14.40
2022-10-29T00:03:48.009Z,11.85
2022-10-29T00:06:23.842Z,11.20
2022-10-29T00:08:59.129Z,10.00
2022-10-29T00:11:31.003Z,9.65
2022-10-29T00:14:04.039Z,11.18
2022-10-29T00:16:42.150Z,12.20
2022-10-29T00:19:13.372Z,12.10
2022-10-29T00:21:50.310Z,12.82
2022-10-29T00:24:23.832Z,16.17
2022-10-29T00:26:59.935Z,12.38
2022-10-29T00:29:33.294Z,15.55
2022-10-29T00:32:03.966Z,10.98
2022-10-29T00:34:34.934Z,14.20
2022-10-29T00:37:12.249Z,12.18
2022-10-29T00:39:45.077Z,15.00
2022-10-29T00:42:20.651Z,14.05
2022-10-29T00:45:10.319Z,16.55
2022-10-29T00:47:41.612Z,14.05
2022-10-29T00:50:19.014Z,17.48
2022-10-29T00:52:52.955Z,16.75
2022-10-29T00:55:24.731Z,16.20
2022-10-29T00:57:57.627Z,14.05
2022-10-29T01:00:38.126Z,12.90
2022-10-29T01:03:13.935Z,17.98
2022-10-29T01:05:54.286Z,19.02
2022-10-29T01:08:24.204Z,11.50
2022-10-29T01:11:28.829Z,13.40
2022-10-29T01:14:14.871Z,18.08
2022-10-29T01:16:56.730Z,16.08
2022-10-29T01:19:50.270Z,11.65
2022-10-29T01:25:20.834Z,13.60
2022-10-29T01:28:07.919Z,14.55
2022-10-29T01:31:30.495Z,15.30
2022-10-29T01:34:10.523Z,12.93
2022-10-29T01:36:51.451Z,15.98
2022-10-29T01:39:28.718Z,12.52
2022-10-29T01:42:07.369Z,11.40
2022-10-29T01:44:42.556Z,12.80
2022-10-29T01:47:35.604Z,15.07
2022-10-29T01:50:15.069Z,11.32
2022-10-29T01:52:45.864Z,11.32
2022-10-29T01:55:18.879Z,14.32
2022-10-29T01:57:47.842Z,14.85
2022-10-29T02:00:25.925Z,20.75
2022-10-29T02:03:29.534Z,14.75
2022-10-29T02:06:26.760Z,15.60
2022-10-29T02:09:07.408Z,13.48
2022-10-29T02:11:55.357Z,23.65
2022-10-29T02:14:51.331Z,17.77
2022-10-29T02:17:21.386Z,15.68
2022-10-29T02:19:51.941Z,14.60
2022-10-29T02:22:25.709Z,18.10
2022-10-29T02:24:55.425Z,17.55
2022-10-29T02:27:35.409Z,16.05
2022-10-29T02:30:10.632Z,17.45
2022-10-29T02:32:39.656Z,18.02
2022-10-29T02:35:10.923Z,16.58
2022-10-29T02:37:40.515Z,16.17
2022-10-29T02:40:11.685Z,15.02
2022-10-29T02:42:40.655Z,19.42
2022-10-29T02:45:17.146Z,16.63
2022-10-29T02:47:51.948Z,19.52
2022-10-29T02:50:26.575Z,15.48
2022-10-29T02:52:58.042Z,16.42
2022-10-29T02:55:29.480Z,15.18
2022-10-29T02:58:03.607Z,16.70
2022-10-29T03:00:35.581Z,16.38
2022-10-29T03:03:06.593Z,14.43
2022-10-29T03:05:38.737Z,15.57
2022-10-29T03:08:08.345Z,16.13
2022-10-29T03:10:48.394Z,14.02
2022-10-29T03:13:20.326Z,17.05
2022-10-29T03:15:51.658Z,15.20
2022-10-29T03:18:26.668Z,13.85
2022-10-29T03:21:07.966Z,11.38
2022-10-29T03:23:41.366Z,17.58
2022-10-29T03:26:12.679Z,12.90
2022-10-29T03:28:41.361Z,18.52
2022-10-29T03:31:14.742Z,11.20
2022-10-29T03:33:42.960Z,14.48
2022-10-29T03:36:13.933Z,14.75
2022-10-29T03:38:48.690Z,16.58
2022-10-29T03:41:20.469Z,14.90
2022-10-29T03:43:50.025Z,17.52
2022-10-29T03:46:20.360Z,17.52
2022-10-29T03:48:52.753Z,15.30
2022-10-29T03:51:25.705Z,15.85
2022-10-29T03:54:02.811Z,20.75
2022-10-29T03:56:31.426Z,17.60
2022-10-29T03:59:01.997Z,17.20
2022-10-29T04:01:32.908Z,16.17
2022-10-29T04:04:08.862Z,15.23
2022-10-29T04:06:38.426Z,15.30
2022-10-29T04:09:09.613Z,14.55
2022-10-29T04:11:40.554Z,15.63
2022-10-29T04:14:08.930Z,13.43
2022-10-29T04:16:37.551Z,14.43
2022-10-29T04:19:06.115Z,15.35
2022-10-29T04:30:05.971Z,13.82
2022-10-29T04:32:33.957Z,16.40
2022-10-29T04:35:01.905Z,18.58
2022-10-29T04:37:30.692Z,16.35
2022-10-29T04:39:59.988Z,14.07
2022-10-29T04:42:28.529Z,17.20
2022-10-29T04:44:56.615Z,19.38
2022-10-29T04:47:25.825Z,19.83
2022-10-29T04:49:54.448Z,20.65
2022-10-29T04:52:22.642Z,24.10
2022-10-29T04:54:51.067Z,21.35
2022-10-29T04:57:20.612Z,18.95
2022-10-29T04:59:52.718Z,20.95
2022-10-29T05:02:20.738Z,15.52
2022-10-29T05:04:49.625Z,18.60
2022-10-29T05:07:17.969Z,19.25
2022-10-29T05:09:45.970Z,11.95
2022-10-29T05:12:22.634Z,18.08
2022-10-29T05:14:52.457Z,16.35
2022-10-29T05:17:21.632Z,16.48
2022-10-29T05:19:51.153Z,14.60
2022-10-29T05:22:25.686Z,18.40
2022-10-29T05:24:53.654Z,18.88
2022-10-29T05:27:29.701Z,15.30
2022-10-29T05:29:59.386Z,12.98
2022-10-29T05:32:30.329Z,14.27
2022-10-29T05:34:59.000Z,18.65
2022-10-29T05:37:29.894Z,17.23
2022-10-29T05:40:02.084Z,14.32
2022-10-29T05:42:30.340Z,15.33
2022-10-29T05:45:02.012Z,15.00
2022-10-29T05:47:30.248Z,15.18
2022-10-29T05:49:59.695Z,14.65
2022-10-29T05:52:30.637Z,17.13
2022-10-29T05:54:58.913Z,14.00
2022-10-29T05:57:28.829Z,15.95
2022-10-29T05:59:57.748Z,11.70
2022-10-29T06:02:33.972Z,13.23
2022-10-29T06:05:03.018Z,12.30
2022-10-29T06:07:37.203Z,19.27
2022-10-29T06:10:10.632Z,13.50
2022-10-29T06:12:41.421Z,13.57
2022-10-29T06:15:10.459Z,15.77
2022-10-29T06:17:47.631Z,16.05
2022-10-29T06:20:27.883Z,16.40
2022-10-29T06:23:01.393Z,16.00
2022-10-29T06:25:31.346Z,14.35
2022-10-29T06:28:02.505Z,15.73
2022-10-29T06:30:33.698Z,19.13
2022-10-29T06:33:07.463Z,12.55
2022-10-29T06:35:36.180Z,14.55
2022-10-29T06:38:11.967Z,12.50
2022-10-29T06:40:43.399Z,14.73
2022-10-29T06:43:13.737Z,15.85
2022-10-29T06:45:50.937Z,13.68
2022-10-29T06:48:23.488Z,15.43
2022-10-29T06:50:54.539Z,16.88
2022-10-29T06:53:25.349Z,10.80
2022-10-29T06:55:57.490Z,12.82
2022-10-29T06:58:32.132Z,18.45
2022-10-29T07:01:06.476Z,12.52
2022-10-29T07:03:36.999Z,10.30
2022-10-29T07:06:05.981Z,17.90
2022-10-29T07:08:36.428Z,18.27
2022-10-29T07:11:08.262Z,16.05
2022-10-29T07:13:40.612Z,16.98
2022-10-29T07:16:09.797Z,16.38
2022-10-29T07:18:46.452Z,13.68
2022-10-29T07:21:17.619Z,16.08
2022-10-29T07:24:00.444Z,12.63
2022-10-29T07:26:29.036Z,17.67
2022-10-29T07:28:58.874Z,13.85
2022-10-29T07:31:35.316Z,11.40
2022-10-29T07:34:15.197Z,12.52
2022-10-29T07:36:47.072Z,17.38
2022-10-29T07:39:18.691Z,11.73
2022-10-29T07:41:54.147Z,15.30
2022-10-29T07:44:26.882Z,13.40
2022-10-29T07:46:55.541Z,17.77
2022-10-29T07:49:30.474Z,12.27
2022-10-29T07:51:59.049Z,11.30
2022-10-29T07:54:41.177Z,14.30
2022-10-29T07:57:11.129Z,14.25
2022-10-29T07:59:39.902Z,12.60
2022-10-29T08:02:10.815Z,11.35
2022-10-29T08:04:40.895Z,10.68
2022-10-29T08:09:56.711Z,13.33
2022-10-29T08:12:28.457Z,12.15
2022-10-29T08:14:57.587Z,11.23
2022-10-29T08:17:30.653Z,15.18
2022-10-29T08:22:33.459Z,11.95
2022-10-29T08:25:06.435Z,12.70
2022-10-29T08:27:35.239Z,11.27
2022-10-29T08:30:06.014Z,11.40
2022-10-29T08:32:35.659Z,15.55
2022-10-29T08:35:06.933Z,14.68
2022-10-29T08:37:35.617Z,10.50
2022-10-29T08:40:10.982Z,11.90
2022-10-29T08:42:49.402Z,13.80
2022-10-29T08:45:25.659Z,11.30
2022-10-29T08:48:21.789Z,10.93
2022-10-29T08:50:57.931Z,11.88
2022-10-29T08:53:35.920Z,10.90
2022-10-29T08:56:07.639Z,13.82
2022-10-29T08:58:46.479Z,11.25
2022-10-29T09:01:16.361Z,10.20
2022-10-29T09:03:47.423Z,13.30
2022-10-29T09:06:31.935Z,16.40
2022-10-29T09:09:21.604Z,15.52
2022-10-29T09:12:14.595Z,14.95
2022-10-29T09:15:00.656Z,13.20
2022-10-29T09:17:37.811Z,11.27
2022-10-29T09:20:20.669Z,14.75
2022-10-29T09:23:06.090Z,10.02
2022-10-29T09:25:40.467Z,10.77
2022-10-29T09:28:22.965Z,9.57
2022-10-29T09:31:09.163Z,12.48
2022-10-29T09:33:40.383Z,9.10
2022-10-29T09:36:16.346Z,12.63
2022-10-29T09:38:54.973Z,14.35
2022-10-29T09:41:25.794Z,14.15
2022-10-29T09:44:02.332Z,8.38
2022-10-29T09:46:40.477Z,9.50
2022-10-29T09:49:19.826Z,10.90
2022-10-29T09:51:55.192Z,7.65
2022-10-29T09:54:26.570Z,10.40
2022-10-29T09:56:56.139Z,16.85
2022-10-29T09:59:35.275Z,11.13
2022-10-29T10:02:04.460Z,12.25
2022-10-29T10:04:39.189Z,11.15
2022-10-29T10:07:09.886Z,10.95
2022-10-29T10:09:58.393Z,12.98
2022-10-29T10:12:29.847Z,12.18
2022-10-29T10:15:20.236Z,10.57
2022-10-29T10:18:04.198Z,8.27
2022-10-29T10:20:44.332Z,11.18
2022-10-29T10:23:24.404Z,8.35
2022-10-29T10:26:01.974Z,12.02
2022-10-29T10:28:34.639Z,8.15
2022-10-29T10:31:09.421Z,8.70
2022-10-29T10:33:45.852Z,8.25
2022-10-29T10:36:16.063Z,12.40
2022-10-29T10:38:47.452Z,12.00
2022-10-29T10:41:28.383Z,13.38
2022-10-29T10:44:13.760Z,10.85
2022-10-29T10:46:48.904Z,8.13
2022-10-29T10:49:20.229Z,8.27
2022-10-29T10:51:52.270Z,11.70
2022-10-29T10:54:42.254Z,13.67
2022-10-29T10:57:27.576Z,12.35
2022-10-29T11:00:06.514Z,8.60
2022-10-29T11:02:52.995Z,9.13
2022-10-29T11:05:24.662Z,10.98
2022-10-29T11:08:00.177Z,10.75
2022-10-29T11:10:37.291Z,9.00
2022-10-29T11:13:13.819Z,8.88
2022-10-29T11:15:48.955Z,10.32
2022-10-29T11:18:23.210Z,8.05
2022-10-29T11:21:03.023Z,8.40
2022-10-29T11:23:41.540Z,9.77
2022-10-29T11:26:16.588Z,9.25
2022-10-29T11:28:57.534Z,11.27
2022-10-29T11:31:33.366Z,6.72
2022-10-29T11:34:13.456Z,9.55
2022-10-29T11:36:48.355Z,8.55
2022-10-29T11:39:21.899Z,8.90
2022-10-29T11:41:57.518Z,8.70
2022-10-29T11:44:33.315Z,9.07
2022-10-29T11:47:26.046Z,7.90
2022-10-29T11:50:15.134Z,11.38
2022-10-29T11:52:53.825Z,12.55
2022-10-29T11:55:31.877Z,7.13
2022-10-29T11:58:05.073Z,7.55
2022-10-29T12:00:52.468Z,9.02
2022-10-29T12:03:36.524Z,10.38
2022-10-29T12:06:22.863Z,7.40
2022-10-29T12:09:03.719Z,8.65
2022-10-29T12:12:00.862Z,12.23
2022-10-29T12:14:35.075Z,11.73
2022-10-29T12:17:10.900Z,11.63
2022-10-29T12:20:00.590Z,10.55
2022-10-29T12:22:39.702Z,8.68
2022-10-29T12:25:32.470Z,16.20
2022-10-29T12:28:09.880Z,9.30
2022-10-29T12:30:49.637Z,11.38
2022-10-29T12:33:30.890Z,7.85
2022-10-29T12:36:05.048Z,12.55
2022-10-29T12:38:43.798Z,16.63
2022-10-29T12:41:18.919Z,9.02
2022-10-29T12:43:54.552Z,14.15
2022-10-29T12:46:39.271Z,9.70
2022-10-29T12:49:37.111Z,13.23
2022-10-29T12:52:22.410Z,13.50
2022-10-29T12:54:57.945Z,11.50
2022-10-29T12:57:38.016Z,14.45
2022-10-29T13:00:46.014Z,16.85
2022-10-29T13:04:07.373Z,14.20
2022-10-29T13:06:47.517Z,10.82
2022-10-29T13:09:25.381Z,10.65
2022-10-29T13:11:55.911Z,17.08
2022-10-29T13:14:29.898Z,12.60
2022-10-29T13:17:00.787Z,11.60
2022-10-29T13:19:53.721Z,12.43
2022-10-29T13:22:55.524Z,13.13
2022-10-29T13:25:50.233Z,13.63
2022-10-29T13:28:50.524Z,20.30
2022-10-29T13:31:45.360Z,18.20
2022-10-29T13:35:04.197Z,12.50
2022-10-29T13:37:57.128Z,18.40
2022-10-29T13:41:07.861Z,16.85
2022-10-29T13:43:43.701Z,21.73
2022-10-29T13:46:30.040Z,11.98
2022-10-29T13:49:01.108Z,17.95
2022-10-29T13:51:38.293Z,10.65
2022-10-29T13:54:30.447Z,11.80
2022-10-29T13:57:07.081Z,10.70
2022-10-29T13:59:46.100Z,11.43
2022-10-29T14:02:36.969Z,12.23
2022-10-29T14:05:14.595Z,9.73
2022-10-29T14:07:52.540Z,13.63
2022-10-29T14:10:26.647Z,11.63
2022-10-29T14:13:00.896Z,9.55
2022-10-29T14:15:32.509Z,11.73
2022-10-29T14:18:19.221Z,13.48
2022-10-29T14:20:56.889Z,10.35
2022-10-29T14:23:30.498Z,13.15
2022-10-29T14:26:06.472Z,12.07
2022-10-29T14:28:38.245Z,7.07
2022-10-29T14:31:08.387Z,11.02
2022-10-29T14:33:38.677Z,9.73
2022-10-29T14:36:18.290Z,8.98
2022-10-29T14:38:51.993Z,9.95
2022-10-29T14:41:30.150Z,9.07
2022-10-29T14:44:06.743Z,9.85
2022-10-29T14:46:42.699Z,7.32
2022-10-29T14:49:21.014Z,13.38
2022-10-29T14:51:53.296Z,11.20
2022-10-29T14:54:28.670Z,10.88
2022-10-29T14:57:01.510Z,9.52
2022-10-29T15:02:31.974Z,10.95
2022-10-29T15:04:57.107Z,12.23
2022-10-29T15:07:35.563Z,15.63
2022-10-29T15:10:19.579Z,14.50
2022-10-29T15:12:50.038Z,11.32
2022-10-29T15:15:31.788Z,13.38
2022-10-29T15:18:04.218Z,12.82
2022-10-29T15:20:46.105Z,30.07
2022-10-29T15:23:21.248Z,36.25
2022-10-29T15:25:52.488Z,32.85
2022-10-29T15:28:27.270Z,46.85
2022-10-29T15:31:02.542Z,52.75
2022-10-29T15:33:34.421Z,37.22
2022-10-29T15:36:04.958Z,36.50
2022-10-29T15:39:10.212Z,37.58
2022-10-29T15:41:45.397Z,21.05
2022-10-29T15:44:36.215Z,14.50
2022-10-29T15:47:21.035Z,13.20
2022-10-29T15:49:50.387Z,18.23
2022-10-29T15:52:30.002Z,14.70
2022-10-29T15:54:58.817Z,22.80
2022-10-29T15:57:27.101Z,16.98
2022-10-29T15:59:58.481Z,12.63
2022-10-29T16:02:31.984Z,14.27
2022-10-29T16:05:04.234Z,12.45
2022-10-29T16:07:33.515Z,12.85
2022-10-29T16:10:03.225Z,11.98
2022-10-29T16:12:36.862Z,12.80
2022-10-29T16:15:07.539Z,10.13
2022-10-29T16:17:37.025Z,17.23
2022-10-29T16:20:08.143Z,12.77
2022-10-29T16:22:41.280Z,16.80
2022-10-29T16:26:07.785Z,14.35
2022-10-29T16:28:41.386Z,17.55
2022-10-29T16:31:26.902Z,16.55
2022-10-29T16:34:05.977Z,16.95
2022-10-29T16:36:36.810Z,17.50
2022-10-29T16:39:07.462Z,13.50
2022-10-29T16:41:36.080Z,23.63
2022-10-29T16:44:04.467Z,16.08
2022-10-29T16:46:34.819Z,17.55
2022-10-29T16:49:04.001Z,24.60
2022-10-29T16:51:32.549Z,23.67
2022-10-29T16:54:01.263Z,20.20
2022-10-29T16:56:31.639Z,20.88
2022-10-29T16:59:03.353Z,26.00
2022-10-29T17:01:31.517Z,20.30
2022-10-29T17:04:01.366Z,28.33
2022-10-29T17:06:29.942Z,34.65
2022-10-29T17:08:59.337Z,41.70
2022-10-29T17:11:27.860Z,40.40
2022-10-29T17:13:56.770Z,45.03
2022-10-29T17:16:26.557Z,35.15
2022-10-29T17:18:56.574Z,31.83
2022-10-29T17:21:26.623Z,24.95
2022-10-29T17:23:57.471Z,26.88
2022-10-29T17:26:25.882Z,23.20
2022-10-29T17:28:56.896Z,24.38
2022-10-29T17:31:27.320Z,27.10
2022-10-29T17:33:56.216Z,27.67
2022-10-29T17:36:29.277Z,28.63
2022-10-29T17:41:33.399Z,24.48
2022-10-29T17:44:03.780Z,23.45
2022-10-29T17:46:34.591Z,40.13
2022-10-29T17:49:04.790Z,48.85
2022-10-29T17:51:35.867Z,23.95
2022-10-29T17:54:07.092Z,20.90
2022-10-29T17:56:41.371Z,26.40
2022-10-29T17:59:13.971Z,26.55
2022-10-29T18:01:46.639Z,26.98
2022-10-29T18:04:16.143Z,24.48
2022-10-29T18:06:46.829Z,21.27
2022-10-29T18:09:18.564Z,22.38
2022-10-29T18:11:51.293Z,19.95
2022-10-29T18:14:19.461Z,18.60
2022-10-29T18:16:50.928Z,18.08
2022-10-29T18:19:21.455Z,24.00
2022-10-29T18:21:54.437Z,29.42
2022-10-29T18:24:26.989Z,22.90
2022-10-29T18:26:56.619Z,23.90
2022-10-29T18:29:25.789Z,23.08
2022-10-29T18:31:55.779Z,23.63
2022-10-29T18:34:26.847Z,22.70
2022-10-29T18:36:58.896Z,16.45
2022-10-29T18:39:30.178Z,15.43
2022-10-29T18:41:58.492Z,17.08
2022-10-29T18:44:27.395Z,24.23
2022-10-29T18:46:55.517Z,19.05
2022-10-29T18:49:24.155Z,22.80
2022-10-29T18:51:59.590Z,19.50
2022-10-29T18:54:31.682Z,17.17
2022-10-29T18:57:00.047Z,20.27
2022-10-29T18:59:28.282Z,18.67
2022-10-29T19:01:57.197Z,19.02
2022-10-29T19:04:25.680Z,14.80
2022-10-29T19:06:59.367Z,16.02
2022-10-29T19:09:32.424Z,21.98
2022-10-29T19:14:28.818Z,24.33
2022-10-29T19:16:56.856Z,19.45
2022-10-29T19:19:26.651Z,17.10
2022-10-29T19:21:55.030Z,16.98
2022-10-29T19:24:23.880Z,15.27
2022-10-29T19:26:53.407Z,16.45
2022-10-29T19:29:21.876Z,19.00
2022-10-29T19:31:52.539Z,17.92
2022-10-29T19:34:23.729Z,20.65
2022-10-29T19:36:52.121Z,16.98
2022-10-29T19:39:25.159Z,16.75
2022-10-29T19:44:28.387Z,19.10
2022-10-29T19:46:56.555Z,14.63
2022-10-29T19:49:45.991Z,14.50
2022-10-29T19:52:16.751Z,16.15
2022-10-29T19:54:45.117Z,17.55
2022-10-29T19:57:16.984Z,15.02
2022-10-29T19:59:45.302Z,17.90
2022-10-29T20:02:14.658Z,17.08
2022-10-29T20:04:42.821Z,19.60
2022-10-29T20:07:12.212Z,16.48
2022-10-29T20:09:42.656Z,23.23
2022-10-29T20:12:10.810Z,19.77
2022-10-29T20:14:41.505Z,18.33
2022-10-29T20:17:09.644Z,19.63
2022-10-29T20:19:39.277Z,20.10
2022-10-29T20:22:10.268Z,22.63
2022-10-29T20:24:38.311Z,22.15
2022-10-29T20:27:06.329Z,21.05
2022-10-29T20:29:34.614Z,22.65
2022-10-29T20:32:04.121Z,22.20
2022-10-29T20:34:33.503Z,22.10
2022-10-29T20:37:09.112Z,19.25
2022-10-29T20:39:37.382Z,16.75
2022-10-29T20:42:06.092Z,14.50
2022-10-29T20:44:34.879Z,14.82
2022-10-29T20:47:04.649Z,17.52
2022-10-29T20:49:34.142Z,16.50
2022-10-29T20:52:03.474Z,18.08
2022-10-29T20:54:32.090Z,18.55
2022-10-29T20:57:01.092Z,17.58
2022-10-29T20:59:29.495Z,16.92
2022-10-29T21:01:58.476Z,14.63
2022-10-29T21:04:28.549Z,15.68
2022-10-29T21:06:56.925Z,17.50
2022-10-29T21:09:25.137Z,19.80
2022-10-29T21:11:55.291Z,16.88
2022-10-29T21:14:24.634Z,14.60
2022-10-29T21:16:52.980Z,18.90
2022-10-29T21:19:25.102Z,16.17
2022-10-29T21:21:54.649Z,19.73
2022-10-29T21:24:23.006Z,17.50
2022-10-29T21:26:51.306Z,22.08
2022-10-29T21:29:22.664Z,15.43
2022-10-29T21:31:52.165Z,18.58
2022-10-29T21:34:23.231Z,14.63
2022-10-29T21:36:55.523Z,18.00
2022-10-29T21:39:28.518Z,20.50
2022-10-29T21:44:37.287Z,19.30
2022-10-29T21:47:11.451Z,17.75
2022-10-29T21:49:51.820Z,16.30
2022-10-29T21:52:26.040Z,19.20
2022-10-29T21:54:58.720Z,15.25
2022-10-29T21:57:27.007Z,17.55
2022-10-29T22:00:01.214Z,18.40
2022-10-29T22:02:35.085Z,16.75
2022-10-29T22:05:03.127Z,17.02
2022-10-29T22:07:32.779Z,17.83
2022-10-29T22:10:08.761Z,19.87
2022-10-29T22:12:37.539Z,18.73
2022-10-29T22:15:15.924Z,19.33
2022-10-29T22:17:54.522Z,19.27
2022-10-29T22:20:24.640Z,17.83
2022-10-29T22:22:59.694Z,17.70
2022-10-29T22:25:41.964Z,19.92
2022-10-29T22:28:14.592Z,22.73
2022-10-29T22:30:43.113Z,25.92
2022-10-29T22:33:12.401Z,23.60
2022-10-29T22:35:46.915Z,22.45
2022-10-29T22:38:33.316Z,19.05
2022-10-29T22:41:09.920Z,20.30
2022-10-29T22:43:39.588Z,19.20
2022-10-29T22:46:11.048Z,21.08
2022-10-29T22:48:45.711Z,22.25
2022-10-29T22:51:17.697Z,22.10
2022-10-29T22:53:48.811Z,21.45
2022-10-29T22:56:24.571Z,20.83
2022-10-29T22:58:54.269Z,16.42
2022-10-29T23:01:28.561Z,18.67
2022-10-29T23:04:06.306Z,23.67
2022-10-29T23:06:47.193Z,22.25
2022-10-29T23:09:18.013Z,21.65
2022-10-29T23:11:48.036Z,26.00
2022-10-29T23:14:21.165Z,21.92
2022-10-29T23:19:17.239Z,24.50
2022-10-29T23:21:48.345Z,23.65
2022-10-29T23:24:19.423Z,17.65
2022-10-29T23:26:50.677Z,27.05
2022-10-29T23:29:19.940Z,22.67
2022-10-29T23:31:48.142Z,26.10
2022-10-29T23:34:16.294Z,21.20
2022-10-29T23:36:46.873Z,22.75
2022-10-29T23:39:15.383Z,22.80
2022-10-29T23:41:45.029Z,23.38
2022-10-29T23:44:17.198Z,22.05
2022-10-29T23:46:45.495Z,25.33
2022-10-29T23:49:13.951Z,20.45
2022-10-29T23:51:42.477Z,23.33
2022-10-29T23:54:13.186Z,18.92
2022-10-29T23:56:41.820Z,23.60
2022-10-29T23:59:10.077Z,20.42
